createdAt,value
2023-09-04T00:00:44.580Z,12.90
2023-09-04T00:06:46.491Z,12.90
2023-09-04T00:12:48.420Z,12.80
2023-09-04T00:18:50.435Z,12.60
2023-09-04T00:24:52.383Z,12.60
2023-09-04T00:30:55.361Z,12.50
2023-09-04T00:36:57.281Z,12.50
2023-09-04T00:42:59.238Z,12.50
2023-09-04T00:49:01.231Z,12.30
2023-09-04T00:55:06.243Z,12.20
2023-09-04T01:01:08.368Z,12.30
2023-09-04T01:07:10.315Z,12.30
2023-09-04T01:13:34.618Z,12.30
2023-09-04T01:19:40.401Z,12.20
2023-09-04T01:25:53.616Z,12.00
2023-09-04T01:32:02.549Z,11.90
2023-09-04T01:38:05.570Z,11.80
2023-09-04T01:44:08.114Z,11.70
2023-09-04T01:50:10.563Z,11.60
2023-09-04T01:56:12.609Z,11.60
2023-09-04T02:02:14.529Z,11.60
2023-09-04T02:08:16.707Z,11.50
2023-09-04T02:14:18.658Z,11.50
2023-09-04T02:20:20.581Z,11.60
2023-09-04T02:26:22.601Z,11.70
2023-09-04T02:32:24.559Z,11.70
2023-09-04T02:38:26.522Z,11.80
2023-09-04T02:44:30.391Z,11.80
2023-09-04T02:50:32.327Z,11.70
2023-09-04T02:56:34.277Z,11.60
2023-09-04T03:02:36.936Z,11.50
2023-09-04T03:08:42.015Z,11.30
2023-09-04T03:14:44.035Z,11.30
2023-09-04T03:20:46.067Z,11.30
2023-09-04T03:26:47.987Z,11.30
2023-09-04T03:32:50.541Z,11.20
2023-09-04T03:38:52.752Z,11.10
2023-09-04T03:44:54.698Z,11.00
2023-09-04T03:51:00.920Z,11.00
2023-09-04T03:57:03.366Z,10.90
2023-09-04T04:03:05.555Z,10.80
2023-09-04T04:09:08.182Z,10.80
2023-09-04T04:15:11.218Z,10.80
2023-09-04T04:21:13.699Z,10.70
2023-09-04T04:27:18.811Z,10.70
2023-09-04T04:33:20.817Z,10.50
2023-09-04T04:39:22.859Z,10.40
2023-09-04T04:45:25.071Z,10.40
2023-09-04T04:51:27.009Z,10.20
2023-09-04T04:57:29.323Z,10.20
2023-09-04T05:03:31.318Z,10.20
2023-09-04T05:09:33.248Z,10.30
2023-09-04T05:15:35.256Z,10.30
2023-09-04T05:21:50.313Z,10.40
2023-09-04T05:27:57.776Z,10.50
2023-09-04T05:33:59.775Z,10.40
2023-09-04T05:40:01.799Z,10.70
2023-09-04T05:46:03.954Z,10.80
2023-09-04T05:52:06.348Z,10.90
2023-09-04T05:58:08.290Z,11.00
2023-09-04T06:04:12.235Z,11.00
2023-09-04T06:10:14.358Z,11.10
2023-09-04T06:16:22.670Z,11.20
2023-09-04T06:22:24.627Z,11.40
2023-09-04T06:28:27.584Z,11.70
2023-09-04T06:34:29.855Z,11.90
2023-09-04T06:40:31.853Z,12.10
2023-09-04T06:46:34.361Z,12.40
2023-09-04T06:52:36.891Z,13.60
2023-09-04T06:58:38.860Z,18.00
2023-09-04T07:04:40.864Z,22.40
2023-09-04T07:10:43.791Z,25.20
2023-09-04T07:16:57.717Z,25.80
2023-09-04T07:23:19.025Z,23.70
2023-09-04T07:29:23.186Z,21.30
2023-09-04T07:35:25.130Z,19.90
2023-09-04T07:41:27.111Z,19.30
2023-09-04T07:47:29.115Z,19.10
2023-09-04T07:53:31.058Z,19.00
2023-09-04T07:59:33.045Z,19.20
2023-09-04T08:05:35.482Z,19.30
2023-09-04T08:11:37.495Z,19.60
2023-09-04T08:17:42.286Z,20.00
2023-09-04T08:23:44.465Z,20.30
2023-09-04T08:29:46.546Z,20.70
2023-09-04T08:35:48.592Z,20.70
2023-09-04T08:41:51.596Z,21.30
2023-09-04T08:47:56.164Z,21.90
2023-09-04T08:54:00.986Z,22.20
2023-09-04T09:00:04.445Z,22.70
2023-09-04T09:06:06.529Z,23.10
2023-09-04T09:12:08.582Z,23.70
2023-09-04T09:18:10.562Z,24.10
2023-09-04T09:24:20.308Z,24.40
2023-09-04T09:30:22.328Z,24.90
2023-09-04T09:36:25.847Z,25.80
2023-09-04T09:42:27.828Z,26.80
2023-09-04T09:48:32.205Z,28.10
2023-09-04T09:54:39.267Z,28.90
2023-09-04T10:00:42.406Z,29.60
2023-09-04T10:06:46.024Z,30.00
2023-09-04T10:12:53.203Z,30.30
2023-09-04T10:18:58.037Z,31.30
2023-09-04T10:25:20.632Z,31.70
2023-09-04T10:31:25.575Z,32.70
2023-09-04T10:37:30.507Z,32.70
2023-09-04T10:43:43.044Z,34.10
2023-09-04T10:49:46.223Z,35.20
2023-09-04T10:56:11.837Z,35.40
2023-09-04T11:02:35.473Z,36.10
2023-09-04T11:08:48.907Z,34.20
2023-09-04T11:14:57.251Z,34.90
2023-09-04T11:21:01.513Z,34.90
2023-09-04T11:27:04.607Z,36.00
2023-09-04T11:33:06.639Z,36.10
2023-09-04T11:39:13.967Z,36.40
2023-09-04T11:45:16.169Z,35.30
2023-09-04T11:51:18.176Z,36.10
2023-09-04T11:57:20.420Z,36.00
2023-09-04T12:03:22.410Z,36.40
2023-09-04T12:09:24.692Z,36.50
2023-09-04T12:15:28.588Z,37.20
2023-09-04T12:21:30.552Z,37.40
2023-09-04T12:27:35.121Z,38.10
2023-09-04T12:33:44.275Z,36.60
2023-09-04T12:39:46.360Z,36.50
2023-09-04T12:45:48.428Z,36.90
2023-09-04T12:51:50.495Z,37.50
2023-09-04T12:58:01.404Z,37.00
2023-09-04T13:04:04.444Z,36.40
2023-09-04T13:10:07.253Z,36.60
2023-09-04T13:16:09.512Z,36.80
2023-09-04T13:22:11.494Z,37.60
2023-09-04T13:28:13.450Z,38.40
2023-09-04T13:34:15.396Z,38.50
2023-09-04T13:40:17.446Z,38.80
2023-09-04T13:46:19.531Z,39.70
2023-09-04T13:52:23.882Z,40.10
2023-09-04T13:58:26.715Z,39.30
2023-09-04T14:04:28.654Z,39.60
2023-09-04T14:10:31.031Z,39.00
2023-09-04T14:16:33.138Z,38.90
2023-09-04T14:22:35.138Z,38.50
2023-09-04T14:28:37.084Z,39.00
2023-09-04T14:34:39.043Z,38.90
2023-09-04T14:40:45.939Z,39.30
2023-09-04T14:46:48.085Z,38.80
2023-09-04T14:52:52.825Z,39.40
2023-09-04T14:58:55.783Z,40.20
2023-09-04T15:04:57.732Z,39.10
2023-09-04T15:10:59.701Z,39.20
2023-09-04T15:17:01.656Z,38.90
2023-09-04T15:23:04.034Z,38.30
2023-09-04T15:29:06.030Z,38.60
2023-09-04T15:35:08.371Z,38.60
2023-09-04T15:41:10.360Z,39.20
2023-09-04T15:47:14.161Z,39.20
2023-09-04T15:53:16.653Z,39.40
2023-09-04T15:59:18.560Z,38.50
2023-09-04T16:05:20.534Z,38.10
2023-09-04T16:11:22.633Z,38.40
2023-09-04T16:17:24.712Z,38.80
2023-09-04T16:23:26.773Z,38.40
2023-09-04T16:29:28.752Z,38.50
2023-09-04T16:35:30.738Z,38.30
2023-09-04T16:41:32.683Z,37.70
2023-09-04T16:47:34.656Z,36.70
2023-09-04T16:53:36.665Z,36.10
2023-09-04T16:59:38.614Z,36.10
2023-09-04T17:05:40.575Z,35.40
2023-09-04T17:11:42.631Z,34.60
2023-09-04T17:17:45.109Z,33.80
2023-09-04T17:23:47.050Z,31.60
2023-09-04T17:29:49.021Z,29.50
2023-09-04T17:35:50.982Z,28.00
2023-09-04T17:41:54.254Z,26.80
2023-09-04T17:47:56.322Z,25.50
2023-09-04T17:53:58.345Z,24.10
2023-09-04T18:00:00.303Z,23.10
2023-09-04T18:06:02.249Z,22.30
2023-09-04T18:12:04.774Z,21.60
2023-09-04T18:18:06.812Z,21.00
2023-09-04T18:24:08.963Z,20.50
2023-09-04T18:30:13.580Z,20.20
2023-09-04T18:36:16.710Z,19.90
2023-09-04T18:42:18.697Z,19.50
2023-09-04T18:48:20.623Z,19.20
2023-09-04T18:54:22.619Z,18.90
2023-09-04T19:00:24.789Z,18.70
2023-09-04T19:06:26.798Z,18.60
2023-09-04T19:12:28.772Z,18.60
2023-09-04T19:18:30.767Z,18.40
2023-09-04T19:24:32.801Z,18.30
2023-09-04T19:30:34.877Z,18.20
2023-09-04T19:36:36.909Z,18.00
2023-09-04T19:42:38.856Z,18.00
2023-09-04T19:48:40.791Z,17.90
2023-09-04T19:54:42.753Z,17.80
2023-09-04T20:00:45.142Z,17.80
2023-09-04T20:06:47.093Z,17.80
2023-09-04T20:12:49.493Z,17.70
2023-09-04T20:18:51.455Z,17.70
2023-09-04T20:24:54.164Z,17.80
2023-09-04T20:30:57.215Z,17.80
2023-09-04T20:37:03.088Z,17.80
2023-09-04T20:43:05.126Z,17.80
2023-09-04T20:49:07.069Z,17.80
2023-09-04T20:55:09.245Z,17.90
2023-09-04T21:01:11.271Z,18.00
2023-09-04T21:07:13.181Z,18.00
2023-09-04T21:13:33.380Z,18.10
2023-09-04T21:19:53.947Z,18.10
2023-09-04T21:26:15.309Z,18.10
2023-09-04T21:32:36.068Z,18.00
2023-09-04T21:38:56.545Z,18.00
2023-09-04T21:45:17.054Z,17.90
2023-09-04T21:51:37.254Z,17.90
2023-09-04T21:57:58.004Z,17.90
2023-09-04T22:04:18.771Z,17.80
2023-09-04T22:10:39.248Z,17.70
2023-09-04T22:17:02.215Z,17.60
2023-09-04T22:23:23.422Z,17.50
2023-09-04T22:29:44.360Z,17.50
2023-09-04T22:36:05.002Z,17.30
2023-09-04T22:42:25.515Z,17.30
2023-09-04T22:48:45.745Z,17.30
2023-09-04T22:55:06.165Z,17.20
2023-09-04T23:01:31.205Z,17.20
2023-09-04T23:07:52.092Z,17.10
2023-09-04T23:14:12.750Z,16.90
2023-09-04T23:20:33.222Z,16.80
2023-09-04T23:26:46.421Z,16.70
2023-09-04T23:33:07.002Z,16.60
2023-09-04T23:39:10.388Z,16.50
2023-09-04T23:45:13.124Z,16.60
2023-09-04T23:51:15.026Z,16.60
2023-09-04T23:57:16.936Z,16.60
